createdAt,value
2023-04-25T00:01:52.318Z,1.00
2023-04-25T00:04:18.920Z,1.05
2023-04-25T00:06:45.769Z,1.38
2023-04-25T00:09:12.211Z,1.30
2023-04-25T00:11:38.935Z,0.82
2023-04-25T00:14:05.677Z,1.90
2023-04-25T00:16:34.992Z,1.17
2023-04-25T00:19:03.483Z,1.27
2023-04-25T00:21:30.080Z,1.50
2023-04-25T00:23:57.086Z,1.70
2023-04-25T00:26:23.787Z,1.20
2023-04-25T00:28:50.293Z,1.48
2023-04-25T00:31:17.104Z,1.70
2023-04-25T00:33:43.887Z,1.63
2023-04-25T00:36:10.628Z,1.58
2023-04-25T00:38:37.071Z,1.45
2023-04-25T00:41:03.487Z,1.55
2023-04-25T00:43:32.287Z,1.20
2023-04-25T00:46:01.405Z,1.10
2023-04-25T00:48:28.135Z,1.52
2023-04-25T00:50:56.919Z,1.73
2023-04-25T00:53:24.729Z,2.10
2023-04-25T00:55:52.054Z,1.25
2023-04-25T00:58:19.203Z,1.00
2023-04-25T01:00:47.635Z,1.40
2023-04-25T01:03:20.585Z,1.65
2023-04-25T01:05:48.145Z,1.13
2023-04-25T01:08:15.524Z,1.00
2023-04-25T01:10:42.044Z,1.37
2023-04-25T01:13:09.064Z,1.48
2023-04-25T01:15:37.091Z,1.27
2023-04-25T01:18:04.972Z,0.70
2023-04-25T01:20:33.422Z,0.88
2023-04-25T01:23:01.271Z,1.10
2023-04-25T01:25:28.163Z,1.58
2023-04-25T01:27:54.727Z,1.30
2023-04-25T01:30:21.383Z,1.02
2023-04-25T01:32:49.167Z,1.42
2023-04-25T01:35:15.901Z,1.40
2023-04-25T01:37:43.427Z,1.65
2023-04-25T01:40:11.564Z,1.20
2023-04-25T01:42:40.108Z,1.20
2023-04-25T01:45:08.269Z,1.17
2023-04-25T01:47:36.142Z,1.10
2023-04-25T01:50:04.015Z,0.52
2023-04-25T01:52:30.456Z,1.65
2023-04-25T01:54:58.867Z,1.00
2023-04-25T01:57:25.642Z,2.38
2023-04-25T01:59:52.167Z,0.83
2023-04-25T02:02:18.806Z,1.45
2023-04-25T02:04:45.376Z,0.95
2023-04-25T02:07:11.860Z,1.73
2023-04-25T02:09:38.402Z,1.05
2023-04-25T02:12:05.182Z,1.13
2023-04-25T02:14:31.583Z,1.00
2023-04-25T02:16:58.281Z,0.70
2023-04-25T02:19:24.839Z,1.08
2023-04-25T02:21:51.294Z,1.30
2023-04-25T02:24:17.839Z,1.07
2023-04-25T02:26:45.040Z,1.08
2023-04-25T02:29:11.494Z,1.00
2023-04-25T02:31:37.926Z,0.90
2023-04-25T02:34:04.400Z,1.00
2023-04-25T02:36:33.237Z,1.00
2023-04-25T02:38:59.609Z,0.70
2023-04-25T02:41:26.062Z,0.77
2023-04-25T02:43:52.639Z,0.57
2023-04-25T02:46:28.675Z,0.75
2023-04-25T02:49:04.590Z,1.17
2023-04-25T02:51:31.343Z,1.73
2023-04-25T02:53:57.723Z,1.27
2023-04-25T02:56:24.264Z,0.60
2023-04-25T02:58:50.715Z,1.20
2023-04-25T03:01:17.207Z,1.30
2023-04-25T03:03:43.784Z,0.63
2023-04-25T03:06:10.535Z,0.57
2023-04-25T03:08:36.926Z,0.75
2023-04-25T03:11:03.377Z,1.25
2023-04-25T03:13:30.865Z,0.73
2023-04-25T03:15:57.314Z,0.70
2023-04-25T03:18:23.698Z,1.10
2023-04-25T03:20:50.088Z,1.00
2023-04-25T03:23:16.457Z,1.40
2023-04-25T03:25:42.896Z,1.30
2023-04-25T03:28:09.549Z,1.10
2023-04-25T03:30:36.066Z,2.17
2023-04-25T03:33:02.783Z,1.25
2023-04-25T03:35:29.557Z,1.38
2023-04-25T03:37:55.998Z,1.57
2023-04-25T03:40:22.560Z,1.50
2023-04-25T03:42:48.981Z,1.35
2023-04-25T03:45:15.456Z,1.45
2023-04-25T03:47:41.881Z,1.63
2023-04-25T03:50:08.666Z,1.53
2023-04-25T03:52:35.283Z,0.95
2023-04-25T03:55:02.106Z,0.70
2023-04-25T03:57:28.563Z,1.13
2023-04-25T03:59:54.994Z,1.17
2023-04-25T04:02:21.569Z,1.20
2023-04-25T04:04:48.517Z,1.55
2023-04-25T04:07:15.446Z,0.90
2023-04-25T04:09:41.918Z,1.20
2023-04-25T04:12:08.392Z,0.88
2023-04-25T04:14:34.866Z,0.80
2023-04-25T04:17:01.387Z,1.20
2023-04-25T04:19:27.855Z,0.80
2023-04-25T04:21:54.220Z,1.10
2023-04-25T04:24:20.599Z,0.85
2023-04-25T04:26:47.327Z,1.00
2023-04-25T04:29:21.542Z,0.77
2023-04-25T04:31:50.449Z,0.88
2023-04-25T04:34:18.873Z,0.68
2023-04-25T04:36:48.719Z,0.60
2023-04-25T04:39:15.217Z,0.47
2023-04-25T04:41:41.707Z,0.68
2023-04-25T04:44:09.928Z,0.55
2023-04-25T04:46:38.872Z,0.40
2023-04-25T04:49:06.100Z,0.40
2023-04-25T04:51:32.763Z,0.60
2023-04-25T04:54:03.308Z,0.45
2023-04-25T04:56:33.157Z,0.40
2023-04-25T04:58:59.911Z,0.70
2023-04-25T05:01:27.112Z,0.40
2023-04-25T05:03:54.526Z,0.60
2023-04-25T05:06:21.478Z,0.43
2023-04-25T05:08:48.018Z,0.60
2023-04-25T05:11:14.497Z,0.60
2023-04-25T05:13:40.977Z,0.60
2023-04-25T05:16:07.371Z,0.30
2023-04-25T05:18:33.782Z,0.30
2023-04-25T05:21:00.220Z,0.40
2023-04-25T05:23:28.748Z,0.40
2023-04-25T05:25:55.300Z,0.50
2023-04-25T05:28:22.296Z,0.50
2023-04-25T05:30:49.216Z,0.43
2023-04-25T05:33:16.319Z,0.60
2023-04-25T05:35:42.877Z,0.52
2023-04-25T05:38:09.482Z,0.60
2023-04-25T05:40:36.044Z,0.50
2023-04-25T05:43:02.543Z,0.28
2023-04-25T05:45:29.095Z,0.90
2023-04-25T05:47:55.653Z,0.40
2023-04-25T05:50:22.448Z,0.60
2023-04-25T05:52:48.877Z,0.50
2023-04-25T05:55:15.872Z,0.50
2023-04-25T05:57:43.343Z,0.60
2023-04-25T06:00:10.597Z,0.60
2023-04-25T06:02:37.271Z,0.65
2023-04-25T06:05:04.678Z,0.40
2023-04-25T06:07:31.799Z,0.60
2023-04-25T06:09:58.676Z,0.60
2023-04-25T06:12:25.096Z,1.27
2023-04-25T06:14:51.657Z,0.75
2023-04-25T06:17:18.238Z,0.33
2023-04-25T06:19:44.722Z,0.60
2023-04-25T06:22:11.187Z,0.30
2023-04-25T06:24:38.646Z,0.32
2023-04-25T06:27:05.110Z,0.80
2023-04-25T06:29:31.659Z,0.63
2023-04-25T06:31:58.252Z,0.82
2023-04-25T06:34:25.050Z,0.82
2023-04-25T06:36:51.493Z,0.60
2023-04-25T06:39:18.003Z,0.50
2023-04-25T06:41:44.376Z,0.87
2023-04-25T06:44:10.717Z,0.63
2023-04-25T06:46:38.643Z,0.38
2023-04-25T06:49:05.314Z,0.50
2023-04-25T06:51:31.862Z,0.77
2023-04-25T06:53:58.400Z,0.40
2023-04-25T06:56:24.961Z,1.10
2023-04-25T06:58:51.536Z,0.85
2023-04-25T07:01:18.284Z,0.40
2023-04-25T07:03:44.922Z,0.50
2023-04-25T07:06:11.867Z,0.20
2023-04-25T07:08:38.216Z,0.52
2023-04-25T07:11:04.649Z,0.60
2023-04-25T07:13:31.156Z,0.45
2023-04-25T07:15:58.196Z,0.55
2023-04-25T07:18:24.575Z,0.37
2023-04-25T07:20:50.984Z,0.30
2023-04-25T07:23:17.441Z,0.30
2023-04-25T07:25:43.911Z,0.65
2023-04-25T07:28:10.331Z,0.35
2023-04-25T07:30:37.678Z,0.50
2023-04-25T07:33:04.136Z,0.85
2023-04-25T07:35:30.607Z,0.40
2023-04-25T07:37:57.293Z,1.05
2023-04-25T07:40:23.829Z,0.43
2023-04-25T07:42:50.439Z,0.67
2023-04-25T07:45:17.067Z,0.50
2023-04-25T07:47:43.515Z,0.30
2023-04-25T07:50:11.096Z,0.65
2023-04-25T07:52:37.538Z,0.50
2023-04-25T07:55:04.342Z,0.50
2023-04-25T07:57:31.197Z,0.57
2023-04-25T07:59:57.668Z,0.50
2023-04-25T08:02:24.159Z,0.22
2023-04-25T08:04:51.015Z,0.32
2023-04-25T08:07:17.643Z,0.20
2023-04-25T08:09:44.106Z,0.30
2023-04-25T08:12:10.630Z,0.88
2023-04-25T08:14:41.430Z,0.30
2023-04-25T08:17:07.996Z,0.73
2023-04-25T08:19:34.532Z,0.40
2023-04-25T08:22:01.012Z,0.30
2023-04-25T08:24:27.438Z,0.22
2023-04-25T08:26:54.867Z,0.57
2023-04-25T08:29:21.382Z,0.20
2023-04-25T08:31:49.111Z,0.30
2023-04-25T08:34:16.205Z,0.30
2023-04-25T08:36:42.650Z,0.55
2023-04-25T08:39:09.214Z,0.20
2023-04-25T08:41:38.469Z,0.25
2023-04-25T08:44:06.503Z,0.20
2023-04-25T08:46:33.583Z,0.30
2023-04-25T08:49:02.848Z,0.57
2023-04-25T08:51:33.412Z,0.40
2023-04-25T08:56:48.710Z,0.20
2023-04-25T08:59:15.992Z,0.38
2023-04-25T09:01:42.510Z,0.40
2023-04-25T09:04:09.394Z,0.30
2023-04-25T09:06:36.028Z,0.40
2023-04-25T09:09:07.005Z,0.60
2023-04-25T09:11:34.624Z,0.63
2023-04-25T09:14:22.410Z,0.90
2023-04-25T09:16:58.086Z,0.30
2023-04-25T09:19:38.829Z,0.35
2023-04-25T09:22:08.365Z,0.40
2023-04-25T09:24:44.401Z,1.05
2023-04-25T09:27:23.953Z,0.20
2023-04-25T09:29:58.274Z,0.47
2023-04-25T09:32:25.859Z,0.45
2023-04-25T09:34:57.195Z,0.20
2023-04-25T09:37:24.930Z,0.30
2023-04-25T09:40:01.272Z,0.43
2023-04-25T09:42:29.925Z,0.20
2023-04-25T09:44:58.099Z,0.13
2023-04-25T09:47:26.256Z,0.30
2023-04-25T09:49:53.736Z,0.25
2023-04-25T09:52:26.107Z,0.30
2023-04-25T09:54:53.757Z,0.20
2023-04-25T09:57:25.353Z,0.47
2023-04-25T09:59:53.900Z,0.10
2023-04-25T10:02:22.690Z,0.30
2023-04-25T10:04:53.656Z,0.20
2023-04-25T10:07:22.382Z,0.35
2023-04-25T10:09:52.821Z,0.43
2023-04-25T10:12:19.316Z,0.33
2023-04-25T10:14:47.256Z,0.25
2023-04-25T10:17:13.964Z,0.28
2023-04-25T10:19:40.371Z,0.60
2023-04-25T10:22:18.644Z,0.28
2023-04-25T10:24:47.286Z,0.40
2023-04-25T10:27:14.185Z,0.50
2023-04-25T10:30:10.914Z,0.40
2023-04-25T10:32:37.598Z,0.30
2023-04-25T10:35:18.953Z,0.50
2023-04-25T10:38:06.333Z,0.50
2023-04-25T10:40:33.854Z,0.30
2023-04-25T10:43:39.081Z,0.22
2023-04-25T10:46:23.361Z,0.20
2023-04-25T10:48:57.107Z,0.30
2023-04-25T10:51:54.328Z,0.10
2023-04-25T10:54:24.106Z,0.20
2023-04-25T10:56:51.780Z,0.63
2023-04-25T10:59:19.874Z,0.35
2023-04-25T11:01:48.925Z,0.20
2023-04-25T11:04:33.229Z,0.30
2023-04-25T11:07:06.875Z,0.30
2023-04-25T11:09:35.932Z,0.57
2023-04-25T11:12:02.402Z,0.20
2023-04-25T11:14:29.015Z,0.30
2023-04-25T11:16:58.171Z,0.30
2023-04-25T11:19:27.245Z,0.50
2023-04-25T11:21:57.666Z,0.20
2023-04-25T11:24:29.114Z,0.30
2023-04-25T11:26:56.072Z,0.28
2023-04-25T11:29:29.022Z,0.50
2023-04-25T11:31:59.399Z,0.30
2023-04-25T11:34:26.993Z,0.63
2023-04-25T11:36:54.380Z,0.30
2023-04-25T11:39:21.259Z,0.30
2023-04-25T11:41:48.244Z,0.20
2023-04-25T11:44:19.129Z,0.63
2023-04-25T11:46:46.101Z,0.40
2023-04-25T11:49:13.604Z,0.30
2023-04-25T11:51:44.524Z,0.40
2023-04-25T11:54:12.687Z,0.40
2023-04-25T11:56:43.499Z,0.60
2023-04-25T11:59:10.611Z,0.73
2023-04-25T12:01:39.369Z,0.30
2023-04-25T12:04:18.119Z,0.30
2023-04-25T12:06:48.857Z,0.30
2023-04-25T12:09:20.189Z,0.40
2023-04-25T12:11:54.699Z,0.20
2023-04-25T12:14:27.993Z,0.30
2023-04-25T12:16:58.547Z,0.30
2023-04-25T12:19:25.251Z,0.30
2023-04-25T12:21:57.886Z,0.30
2023-04-25T12:24:27.047Z,0.40
2023-04-25T12:27:05.067Z,0.28
2023-04-25T12:29:48.635Z,0.50
2023-04-25T12:32:16.709Z,0.40
2023-04-25T12:34:43.313Z,0.30
2023-04-25T12:37:10.411Z,0.30
2023-04-25T12:39:37.029Z,0.40
2023-04-25T12:42:05.083Z,0.20
2023-04-25T12:44:32.670Z,0.27
2023-04-25T12:47:00.839Z,0.30
2023-04-25T12:49:27.407Z,0.28
2023-04-25T12:51:53.808Z,0.30
2023-04-25T12:54:20.232Z,0.93
2023-04-25T12:56:47.343Z,0.30
2023-04-25T12:59:13.743Z,0.20
2023-04-25T13:01:40.273Z,0.30
2023-04-25T13:04:07.023Z,0.30
2023-04-25T13:06:33.485Z,0.30
2023-04-25T13:08:59.948Z,0.20
2023-04-25T13:11:26.585Z,0.20
2023-04-25T13:13:53.399Z,0.30
2023-04-25T13:16:21.950Z,0.20
2023-04-25T13:18:48.818Z,0.30
2023-04-25T13:21:15.555Z,0.50
2023-04-25T13:23:44.051Z,0.20
2023-04-25T13:26:11.158Z,0.20
2023-04-25T13:28:37.824Z,0.35
2023-04-25T13:31:04.460Z,0.30
2023-04-25T13:33:31.016Z,0.30
2023-04-25T13:35:58.286Z,0.38
2023-04-25T13:38:25.782Z,0.40
2023-04-25T13:40:53.846Z,0.25
2023-04-25T13:43:23.738Z,0.20
2023-04-25T13:45:51.253Z,0.50
2023-04-25T13:48:18.735Z,0.20
2023-04-25T13:50:45.201Z,0.47
2023-04-25T13:53:11.659Z,0.40
2023-04-25T13:55:38.592Z,0.20
2023-04-25T13:58:08.939Z,0.20
2023-04-25T14:00:39.985Z,0.20
2023-04-25T14:03:08.828Z,0.35
2023-04-25T14:05:40.431Z,0.30
2023-04-25T14:08:08.891Z,0.30
2023-04-25T14:10:36.212Z,0.47
2023-04-25T14:13:04.032Z,0.43
2023-04-25T14:15:32.891Z,0.38
2023-04-25T14:18:00.334Z,0.30
2023-04-25T14:20:27.412Z,0.25
2023-04-25T14:22:55.570Z,0.20
2023-04-25T14:25:22.348Z,0.20
2023-04-25T14:27:51.001Z,0.30
2023-04-25T14:30:19.520Z,0.32
2023-04-25T14:32:46.478Z,0.40
2023-04-25T14:35:13.511Z,0.60
2023-04-25T14:37:40.392Z,0.35
2023-04-25T14:40:09.699Z,0.40
2023-04-25T14:42:36.529Z,0.60
2023-04-25T14:45:04.557Z,0.30
2023-04-25T14:47:31.063Z,0.60
2023-04-25T14:49:57.511Z,0.30
2023-04-25T14:52:24.257Z,0.30
2023-04-25T14:54:50.733Z,0.30
2023-04-25T14:57:17.492Z,0.60
2023-04-25T14:59:43.862Z,0.43
2023-04-25T15:02:10.379Z,0.20
2023-04-25T15:04:37.036Z,0.35
2023-04-25T15:07:03.881Z,0.20
2023-04-25T15:09:30.786Z,0.30
2023-04-25T15:11:59.064Z,0.20
2023-04-25T15:14:25.517Z,0.22
2023-04-25T15:16:51.976Z,0.43
2023-04-25T15:19:18.743Z,0.20
2023-04-25T15:21:45.168Z,0.30
2023-04-25T15:24:12.110Z,0.30
2023-04-25T15:26:38.608Z,0.40
2023-04-25T15:29:06.855Z,0.40
2023-04-25T15:31:33.436Z,0.57
2023-04-25T15:34:00.174Z,0.40
2023-04-25T15:36:26.681Z,0.20
2023-04-25T15:38:53.190Z,0.40
2023-04-25T15:41:19.728Z,0.38
2023-04-25T15:43:48.231Z,0.32
2023-04-25T15:46:14.941Z,0.40
2023-04-25T15:48:41.415Z,0.30
2023-04-25T15:51:07.852Z,1.02
2023-04-25T15:53:34.298Z,0.80
2023-04-25T15:56:00.762Z,0.50
2023-04-25T15:58:27.686Z,0.20
2023-04-25T16:00:55.669Z,0.50
2023-04-25T16:03:22.519Z,0.25
2023-04-25T16:05:49.532Z,0.60
2023-04-25T16:08:16.416Z,0.40
2023-04-25T16:10:42.986Z,0.20
2023-04-25T16:13:09.405Z,0.70
2023-04-25T16:15:36.034Z,0.20
2023-04-25T16:18:03.256Z,0.52
2023-04-25T16:20:29.775Z,0.38
2023-04-25T16:22:56.478Z,0.30
2023-04-25T16:25:23.119Z,0.30
2023-04-25T16:27:49.665Z,0.20
2023-04-25T16:30:16.414Z,0.52
2023-04-25T16:32:45.256Z,0.30
2023-04-25T16:38:05.296Z,0.40
2023-04-25T16:40:31.845Z,0.35
2023-04-25T16:42:58.263Z,0.30
2023-04-25T16:45:24.799Z,0.40
2023-04-25T16:47:51.300Z,0.52
2023-04-25T16:50:18.824Z,0.40
2023-04-25T16:52:45.587Z,0.57
2023-04-25T16:55:12.193Z,0.40
2023-04-25T16:57:38.592Z,0.40
2023-04-25T17:00:06.942Z,0.30
2023-04-25T17:02:33.623Z,0.57
2023-04-25T17:05:00.107Z,0.25
2023-04-25T17:07:26.793Z,0.50
2023-04-25T17:09:53.720Z,0.40
2023-04-25T17:12:21.380Z,0.30
2023-04-25T17:14:49.091Z,0.40
2023-04-25T17:17:15.583Z,0.20
2023-04-25T17:19:41.959Z,0.30
2023-04-25T17:22:09.254Z,0.45
2023-04-25T17:24:36.998Z,0.30
2023-04-25T17:27:03.905Z,0.40
2023-04-25T17:29:30.354Z,0.35
2023-04-25T17:31:57.168Z,0.30
2023-04-25T17:34:23.585Z,0.32
2023-04-25T17:36:50.183Z,0.63
2023-04-25T17:39:17.386Z,0.30
2023-04-25T17:41:44.720Z,0.55
2023-04-25T17:44:11.415Z,0.50
2023-04-25T17:46:37.988Z,0.50
2023-04-25T17:49:04.468Z,0.40
2023-04-25T17:51:31.614Z,0.40
2023-04-25T17:53:58.103Z,0.60
2023-04-25T17:56:27.080Z,0.60
2023-04-25T17:58:54.499Z,0.40
2023-04-25T18:01:21.377Z,0.50
2023-04-25T18:03:50.051Z,0.50
2023-04-25T18:06:17.852Z,0.60
2023-04-25T18:08:44.789Z,0.60
2023-04-25T18:11:11.977Z,0.80
2023-04-25T18:13:39.067Z,0.95
2023-04-25T18:16:06.070Z,0.87
2023-04-25T18:18:34.574Z,1.30
2023-04-25T18:21:03.890Z,0.40
2023-04-25T18:23:32.449Z,2.22
2023-04-25T18:25:59.097Z,2.17
2023-04-25T18:28:25.619Z,0.90
2023-04-25T18:30:52.239Z,1.73
2023-04-25T18:33:18.931Z,1.58
2023-04-25T18:35:55.247Z,1.50
2023-04-25T18:38:35.377Z,1.35
2023-04-25T18:43:43.489Z,0.90
2023-04-25T18:46:10.143Z,1.05
2023-04-25T18:48:37.080Z,1.25
2023-04-25T18:51:03.671Z,1.98
2023-04-25T18:53:30.089Z,2.40
2023-04-25T18:55:56.730Z,1.40
2023-04-25T18:58:23.156Z,3.78
2023-04-25T19:00:49.665Z,2.25
2023-04-25T19:03:17.168Z,5.15
2023-04-25T19:05:43.732Z,2.53
2023-04-25T19:08:10.152Z,3.53
2023-04-25T19:10:37.482Z,3.22
2023-04-25T19:13:04.158Z,2.40
2023-04-25T19:15:33.343Z,2.15
2023-04-25T19:17:59.821Z,2.70
2023-04-25T19:20:27.252Z,1.35
2023-04-25T19:22:54.586Z,2.53
2023-04-25T19:25:21.151Z,3.65
2023-04-25T19:27:47.786Z,2.53
2023-04-25T19:30:14.554Z,3.90
2023-04-25T19:32:41.046Z,3.00
2023-04-25T19:35:10.993Z,3.90
2023-04-25T19:37:38.364Z,3.55
2023-04-25T19:40:07.384Z,3.35
2023-04-25T19:42:33.865Z,1.20
2023-04-25T19:45:00.251Z,1.13
2023-04-25T19:47:28.057Z,1.35
2023-04-25T19:49:54.811Z,1.10
2023-04-25T19:52:21.269Z,1.20
2023-04-25T19:54:47.648Z,1.23
2023-04-25T19:57:14.433Z,2.00
2023-04-25T19:59:41.113Z,6.30
2023-04-25T20:02:10.608Z,8.65
2023-04-25T20:04:38.646Z,6.53
2023-04-25T20:07:05.107Z,8.10
2023-04-25T20:09:31.922Z,5.00
2023-04-25T20:11:58.365Z,3.83
2023-04-25T20:14:24.729Z,9.23
2023-04-25T20:16:51.195Z,7.97
2023-04-25T20:19:17.717Z,5.37
2023-04-25T20:21:44.287Z,3.15
2023-04-25T20:24:11.438Z,3.00
2023-04-25T20:26:38.000Z,1.70
2023-04-25T20:29:06.034Z,1.98
2023-04-25T20:31:34.316Z,1.07
2023-04-25T20:34:01.057Z,0.95
2023-04-25T20:36:28.128Z,1.00
2023-04-25T20:38:54.814Z,1.25
2023-04-25T20:41:21.412Z,1.30
2023-04-25T20:43:48.186Z,0.93
2023-04-25T20:46:16.000Z,1.00
2023-04-25T20:48:42.645Z,0.77
2023-04-25T20:51:09.160Z,0.90
2023-04-25T20:53:35.604Z,1.35
2023-04-25T20:56:02.715Z,1.08
2023-04-25T20:58:29.098Z,0.90
2023-04-25T21:00:56.480Z,0.98
2023-04-25T21:03:23.135Z,1.02
2023-04-25T21:05:49.785Z,1.55
2023-04-25T21:08:16.786Z,0.93
2023-04-25T21:10:43.212Z,1.00
2023-04-25T21:13:09.821Z,0.80
2023-04-25T21:15:36.340Z,1.30
2023-04-25T21:18:02.875Z,1.38
2023-04-25T21:20:29.486Z,1.40
2023-04-25T21:22:57.736Z,1.30
2023-04-25T21:25:29.299Z,0.95
2023-04-25T21:27:56.262Z,1.40
2023-04-25T21:30:24.227Z,1.02
2023-04-25T21:32:52.134Z,0.80
2023-04-25T21:35:20.142Z,1.35
2023-04-25T21:37:47.022Z,0.70
2023-04-25T21:40:14.383Z,1.48
2023-04-25T21:42:42.321Z,1.35
2023-04-25T21:45:10.121Z,1.73
2023-04-25T21:47:36.894Z,1.15
2023-04-25T21:50:04.155Z,1.38
2023-04-25T21:52:31.748Z,0.93
2023-04-25T21:54:58.172Z,1.10
2023-04-25T21:57:24.772Z,1.43
2023-04-25T21:59:51.293Z,2.08
2023-04-25T22:02:17.941Z,0.80
2023-04-25T22:04:47.240Z,1.25
2023-04-25T22:07:14.764Z,1.20
2023-04-25T22:09:53.805Z,0.93
2023-04-25T22:12:21.281Z,1.17
2023-04-25T22:14:47.824Z,1.58
2023-04-25T22:17:14.712Z,1.77
2023-04-25T22:19:41.360Z,1.63
2023-04-25T22:22:07.829Z,1.10
2023-04-25T22:24:34.312Z,1.10
2023-04-25T22:27:00.817Z,1.48
2023-04-25T22:29:27.437Z,1.40
2023-04-25T22:31:53.999Z,1.02
2023-04-25T22:34:20.702Z,1.30
2023-04-25T22:36:47.135Z,1.27
2023-04-25T22:39:15.314Z,1.20
2023-04-25T22:41:42.606Z,1.35
2023-04-25T22:44:09.372Z,1.73
2023-04-25T22:46:35.826Z,1.40
2023-04-25T22:49:02.733Z,1.13
2023-04-25T22:51:29.462Z,0.90
2023-04-25T22:53:56.150Z,0.73
2023-04-25T22:56:24.682Z,1.23
2023-04-25T22:58:51.595Z,1.50
2023-04-25T23:01:19.434Z,0.52
2023-04-25T23:03:46.328Z,1.23
2023-04-25T23:06:13.337Z,1.40
2023-04-25T23:08:40.992Z,1.20
2023-04-25T23:11:08.305Z,1.02
2023-04-25T23:13:37.736Z,1.85
2023-04-25T23:16:08.732Z,1.05
2023-04-25T23:18:36.170Z,1.20
2023-04-25T23:21:03.909Z,1.10
2023-04-25T23:23:30.661Z,1.33
2023-04-25T23:25:57.802Z,1.00
2023-04-25T23:28:24.519Z,1.13
2023-04-25T23:30:51.051Z,1.35
2023-04-25T23:33:17.496Z,1.92
2023-04-25T23:35:43.980Z,1.27
2023-04-25T23:38:10.572Z,1.10
2023-04-25T23:40:37.001Z,1.30
2023-04-25T23:43:03.530Z,1.40
2023-04-25T23:45:30.366Z,1.10
2023-04-25T23:47:57.178Z,1.40
2023-04-25T23:50:24.480Z,1.55
2023-04-25T23:52:50.882Z,1.02
2023-04-25T23:55:17.348Z,1.45
2023-04-25T23:57:44.407Z,1.35
